Time;durP1;ratioP1;P1;durP2;ratioP2;P2;SDS_P1;SDS_P2;PMS_P1;PMS_P2;Temp;Humidity;BMP_temperature;BMP_pressure;BME280_temperature;BME280_humidity;BME280_pressure;Samples;Min_cycle;Max_cycle;Signal;HPM_P1;HPM_P2
2022/12/31 00:00:31;;;;;;;3.95;3.22;;;19.90;42.30;;;;;;5055085;28;19920;-67
2022/12/31 00:02:58;;;;;;;3.15;2.83;;;20.00;42.40;;;;;;5054989;28;20405;-67
2022/12/31 00:05:26;;;;;;;3.58;2.90;;;19.90;42.30;;;;;;5055126;28;20511;-67
2022/12/31 00:07:53;;;;;;;4.00;3.50;;;19.90;42.30;;;;;;5055323;28;20041;-67
2022/12/31 00:10:20;;;;;;;3.35;2.92;;;19.90;42.40;;;;;;5054831;28;20049;-67
2022/12/31 00:12:47;;;;;;;3.35;3.05;;;19.90;42.30;;;;;;5037817;28;20131;-67
2022/12/31 00:15:14;;;;;;;3.40;3.08;;;19.90;42.30;;;;;;5037144;28;20136;-67
2022/12/31 00:17:41;;;;;;;3.80;3.13;;;19.90;42.40;;;;;;5055270;28;20063;-67
2022/12/31 00:20:08;;;;;;;2.88;2.60;;;19.90;42.40;;;;;;5054839;28;20041;-67
2022/12/31 00:22:36;;;;;;;3.15;2.85;;;19.90;42.40;;;;;;5055124;28;20055;-67
2022/12/31 00:25:03;;;;;;;4.22;3.35;;;19.90;42.40;;;;;;5054841;28;20051;-67
2022/12/31 00:27:31;;;;;;;3.75;3.30;;;19.90;42.40;;;;;;5055080;28;20059;-67
2022/12/31 00:29:58;;;;;;;2.92;2.67;;;19.90;42.40;;;;;;5054935;28;20045;-69
2022/12/31 00:32:30;;;;;;;3.47;2.97;;;19.90;42.40;;;;;;5054173;28;20048;-67
2022/12/31 00:34:57;;;;;;;4.65;3.17;;;19.90;42.40;;;;;;5054083;28;20055;-67
2022/12/31 00:37:24;;;;;;;5.43;4.10;;;19.90;42.40;;;;;;5054128;28;20053;-67
2022/12/31 00:39:51;;;;;;;3.28;2.65;;;19.90;42.40;;;;;;5053992;28;20045;-67
2022/12/31 00:42:19;;;;;;;3.13;2.55;;;20.00;42.50;;;;;;5054516;28;20140;-67
2022/12/31 00:44:46;;;;;;;3.10;2.80;;;19.90;42.50;;;;;;5054396;28;20124;-67
2022/12/31 00:47:13;;;;;;;4.55;2.70;;;19.90;42.40;;;;;;5054141;28;20053;-67
2022/12/31 00:49:40;;;;;;;3.28;2.85;;;19.90;42.40;;;;;;5053813;28;20055;-67
2022/12/31 00:52:07;;;;;;;2.90;2.60;;;19.90;42.40;;;;;;5054333;28;20065;-67
2022/12/31 00:54:34;;;;;;;3.63;2.95;;;19.90;42.40;;;;;;5053644;28;20088;-67
2022/12/31 00:57:01;;;;;;;3.40;2.58;;;19.90;42.40;;;;;;5054499;28;20469;-67
2022/12/31 00:59:29;;;;;;;4.35;3.05;;;19.90;42.40;;;;;;5053872;28;20128;-67
2022/12/31 01:01:56;;;;;;;3.28;2.97;;;19.90;42.40;;;;;;5054434;28;20066;-67
2022/12/31 01:04:23;;;;;;;4.10;3.08;;;19.90;42.40;;;;;;5054025;28;20045;-67
2022/12/31 01:06:50;;;;;;;3.55;2.75;;;19.90;42.40;;;;;;5053720;28;20154;-67
2022/12/31 01:09:17;;;;;;;3.78;2.70;;;19.90;42.40;;;;;;5053722;28;20125;-67
2022/12/31 01:11:44;;;;;;;2.80;2.55;;;19.90;42.40;;;;;;5036347;28;20092;-67
2022/12/31 01:14:15;;;;;;;3.22;2.92;;;19.90;42.40;;;;;;5035635;28;20049;-67
2022/12/31 01:16:50;;;;;;;3.10;2.75;;;19.90;42.40;;;;;;5054173;28;20448;-67
2022/12/31 01:19:23;;;;;;;3.03;2.72;;;19.90;42.40;;;;;;5053265;28;20488;-67
2022/12/31 01:21:51;;;;;;;3.38;2.55;;;19.90;42.40;;;;;;5053223;28;20055;-67
2022/12/31 01:24:18;;;;;;;2.40;2.20;;;19.90;42.40;;;;;;5053780;28;20053;-67
2022/12/31 01:26:46;;;;;;;3.40;2.88;;;19.90;42.40;;;;;;5053566;28;20087;-67
2022/12/31 01:29:15;;;;;;;3.03;2.53;;;19.90;42.50;;;;;;5053682;28;20053;-67
2022/12/31 01:31:42;;;;;;;2.40;2.20;;;19.90;42.50;;;;;;5053636;28;20049;-66
2022/12/31 01:34:10;;;;;;;3.65;2.60;;;19.90;42.50;;;;;;5053527;28;20488;-67
2022/12/31 01:36:37;;;;;;;2.65;2.20;;;19.90;42.40;;;;;;5052959;28;20131;-66
2022/12/31 01:39:06;;;;;;;3.08;2.60;;;19.90;42.50;;;;;;5053394;28;20060;-67
2022/12/31 01:41:40;;;;;;;2.85;2.20;;;19.90;42.50;;;;;;5053867;28;20123;-67
2022/12/31 01:44:36;;;;;;;2.90;2.60;;;19.90;42.50;;;;;;5053210;28;20052;-67
2022/12/31 01:47:04;;;;;;;2.67;2.47;;;19.90;42.50;;;;;;5038976;28;20053;-67
2022/12/31 01:49:46;;;;;;;2.83;2.28;;;19.90;42.50;;;;;;5053603;28;20493;-67
2022/12/31 01:52:21;;;;;;;2.92;2.70;;;19.90;42.50;;;;;;5053615;28;20048;-67
2022/12/31 01:54:56;;;;;;;2.97;2.63;;;19.90;42.50;;;;;;5053481;28;20133;-66
2022/12/31 01:57:25;;;;;;;2.78;2.47;;;19.90;42.50;;;;;;5052843;28;20045;-67
2022/12/31 01:59:53;;;;;;;2.67;2.38;;;19.90;42.50;;;;;;5052977;28;20049;-67
2022/12/31 02:02:21;;;;;;;2.67;2.03;;;19.90;42.50;;;;;;5053494;28;20055;-67
2022/12/31 02:04:52;;;;;;;2.63;2.42;;;19.90;42.50;;;;;;5034894;28;20139;-67
2022/12/31 02:07:19;;;;;;;;;;;19.90;42.50;;;;;;5053835;28;20041;-67
2022/12/31 02:09:46;;;;;;;2.97;2.50;;;19.90;42.50;;;;;;5053348;28;19920;-67
2022/12/31 02:12:14;;;;;;;3.38;2.78;;;19.90;42.50;;;;;;5053025;28;20084;-67
2022/12/31 02:14:47;;;;;;;2.42;2.08;;;19.90;42.50;;;;;;5052978;28;20055;-67
2022/12/31 02:17:47;;;;;;;2.75;2.28;;;19.90;42.50;;;;;;5053302;28;20099;-67
2022/12/31 02:20:51;;;;;;;2.50;2.30;;;19.90;42.50;;;;;;5052740;28;20045;-69
2022/12/31 02:23:43;;;;;;;3.35;2.53;;;19.90;42.50;;;;;;5051812;28;20107;-67
2022/12/31 02:26:48;;;;;;;3.03;2.22;;;19.90;42.50;;;;;;5051812;28;20056;-67
2022/12/31 02:29:55;;;;;;;2.42;2.22;;;19.80;42.40;;;;;;5053185;28;20481;-67
2022/12/31 02:33:00;;;;;;;2.60;2.15;;;19.80;42.40;;;;;;5053125;28;20095;-67
2022/12/31 02:35:43;;;;;;;2.47;2.25;;;19.80;42.40;;;;;;5053023;28;20103;-67
2022/12/31 02:38:22;;;;;;;2.00;1.90;;;19.80;42.40;;;;;;5052794;28;20049;-67
2022/12/31 02:40:52;;;;;;;2.65;2.20;;;19.80;42.50;;;;;;5052752;28;20052;-67
2022/12/31 02:43:19;;;;;;;3.38;2.28;;;19.80;42.40;;;;;;5052995;28;20127;-67
2022/12/31 02:45:56;;;;;;;3.70;2.63;;;19.80;42.40;;;;;;5052516;28;20404;-67
2022/12/31 02:48:48;;;;;;;3.13;2.42;;;19.80;42.40;;;;;;5035083;28;20077;-67
2022/12/31 02:51:43;;;;;;;2.03;1.92;;;19.90;42.50;;;;;;5052668;28;20056;-67
2022/12/31 02:54:24;;;;;;;2.40;2.03;;;19.90;42.50;;;;;;5051971;28;20056;-67
2022/12/31 02:57:20;;;;;;;2.25;2.05;;;19.90;42.50;;;;;;5051984;28;20048;-67
2022/12/31 03:02:51;;;;;;;2.95;2.30;;;19.90;42.50;;;;;;5038125;28;20091;-67
2022/12/31 03:05:22;;;;;;;2.47;2.28;;;19.90;42.50;;;;;;5052755;28;20122;-67
2022/12/31 03:07:50;;;;;;;3.15;2.13;;;19.90;42.50;;;;;;5052528;28;20087;-67
2022/12/31 03:10:17;;;;;;;2.30;2.10;;;19.90;42.50;;;;;;5054182;28;20140;-67
2022/12/31 03:12:45;;;;;;;2.28;2.08;;;19.90;42.50;;;;;;5056111;28;20069;-67
2022/12/31 03:15:22;;;;;;;2.28;2.08;;;19.90;42.50;;;;;;5056206;28;20168;-66
2022/12/31 03:18:14;;;;;;;3.33;2.00;;;19.90;42.50;;;;;;5056435;28;20052;-67
2022/12/31 03:23:39;;;;;;;2.53;2.20;;;19.90;42.50;;;;;;5056262;28;20408;-67
2022/12/31 03:26:09;;;;;;;3.20;2.50;;;19.80;42.40;;;;;;5055966;28;20136;-66
2022/12/31 03:28:42;;;;;;;2.10;1.70;;;19.90;42.50;;;;;;5055868;28;20045;-66
2022/12/31 03:31:09;;;;;;;2.20;2.00;;;19.90;42.50;;;;;;5055958;28;20045;-66
2022/12/31 03:33:39;;;;;;;3.08;2.55;;;19.90;42.50;;;;;;5055797;28;20052;-67
2022/12/31 03:36:13;;;;;;;3.45;2.17;;;19.90;42.50;;;;;;5056168;28;20053;-67
2022/12/31 03:38:40;;;;;;;1.90;1.80;;;19.90;42.50;;;;;;5038438;28;20140;-66
2022/12/31 03:41:10;;;;;;;2.35;1.90;;;19.90;42.50;;;;;;5055999;28;20049;-66
2022/12/31 03:43:37;;;;;;;2.85;2.35;;;19.90;42.50;;;;;;5038110;28;20084;-67
2022/12/31 03:46:04;;;;;;;2.17;1.98;;;19.90;42.50;;;;;;5055121;28;20049;-67
2022/12/31 03:48:32;;;;;;;2.60;2.40;;;19.90;42.50;;;;;;5037889;28;20051;-67
2022/12/31 03:50:59;;;;;;;2.20;2.00;;;19.90;42.50;;;;;;5055785;28;20136;-67
2022/12/31 03:53:26;;;;;;;2.10;1.90;;;19.90;42.50;;;;;;5054751;28;20094;-67
2022/12/31 03:55:54;;;;;;;3.08;2.47;;;19.90;42.50;;;;;;5055816;28;20103;-66
2022/12/31 03:58:21;;;;;;;2.35;2.03;;;19.80;42.40;;;;;;5055186;28;20048;-66
2022/12/31 04:00:49;;;;;;;2.08;1.83;;;19.90;42.40;;;;;;5068787;28;20045;-66
2022/12/31 04:03:17;;;;;;;3.55;2.00;;;19.90;42.40;;;;;;5075500;28;20048;-67
2022/12/31 04:05:44;;;;;;;2.35;2.13;;;19.90;42.40;;;;;;5075645;28;20083;-67
2022/12/31 04:08:11;;;;;;;1.92;1.75;;;19.90;42.40;;;;;;5075364;28;20147;-66
2022/12/31 04:10:38;;;;;;;2.60;2.40;;;19.90;42.40;;;;;;5075571;28;20059;-67
2022/12/31 04:13:05;;;;;;;2.45;2.25;;;19.90;42.40;;;;;;5075468;28;20054;-66
2022/12/31 04:15:32;;;;;;;1.90;1.73;;;19.90;42.40;;;;;;5075200;28;20040;-67
2022/12/31 04:17:59;;;;;;;1.98;1.83;;;19.90;42.40;;;;;;5075021;28;20488;-66
2022/12/31 04:20:26;;;;;;;2.40;2.20;;;19.90;42.40;;;;;;5074398;28;20041;-67
2022/12/31 04:22:54;;;;;;;1.98;1.88;;;19.90;42.40;;;;;;5074992;28;20476;-67
2022/12/31 04:25:21;;;;;;;2.50;2.20;;;19.90;42.40;;;;;;5074820;28;20540;-67
2022/12/31 04:27:48;;;;;;;2.42;2.22;;;19.90;42.40;;;;;;5074685;28;20106;-66
2022/12/31 04:30:15;;;;;;;2.13;2.03;;;19.90;42.40;;;;;;5074788;28;20510;-66
2022/12/31 04:32:42;;;;;;;3.67;2.13;;;19.90;42.40;;;;;;5075109;28;20052;-67
2022/12/31 04:35:10;;;;;;;2.63;2.00;;;19.90;42.40;;;;;;5074889;28;20076;-67
2022/12/31 04:37:37;;;;;;;2.58;1.95;;;19.90;42.40;;;;;;5074912;28;20052;-66
2022/12/31 04:40:06;;;;;;;2.13;1.92;;;19.80;42.40;;;;;;5074494;28;20045;-67
2022/12/31 04:42:34;;;;;;;3.03;2.40;;;19.90;42.40;;;;;;5074455;28;20098;-66
2022/12/31 04:45:01;;;;;;;2.20;2.00;;;19.90;42.40;;;;;;5074659;28;20055;-67
2022/12/31 04:47:28;;;;;;;2.85;2.20;;;19.90;42.40;;;;;;5073864;28;20048;-67
2022/12/31 04:49:55;;;;;;;2.05;1.85;;;19.90;42.40;;;;;;5074723;28;20056;-67
2022/12/31 04:52:22;;;;;;;2.70;2.00;;;19.80;42.30;;;;;;5074114;28;20408;-66
2022/12/31 04:54:50;;;;;;;2.85;1.67;;;19.90;42.40;;;;;;5074425;28;20070;-67
2022/12/31 04:57:17;;;;;;;2.30;2.17;;;19.90;42.40;;;;;;5073968;28;20055;-67
2022/12/31 04:59:44;;;;;;;2.10;1.90;;;19.90;42.40;;;;;;5074215;28;20055;-67
2022/12/31 05:02:11;;;;;;;2.67;1.95;;;19.90;42.40;;;;;;5073673;28;20045;-67
2022/12/31 05:04:38;;;;;;;2.17;1.98;;;19.90;42.40;;;;;;5073425;28;20060;-67
2022/12/31 05:07:06;;;;;;;2.00;1.75;;;19.90;42.40;;;;;;5073520;28;20094;-67
2022/12/31 05:09:33;;;;;;;1.60;1.50;;;19.90;42.40;;;;;;5073848;28;20052;-67
2022/12/31 05:12:00;;;;;;;2.00;1.77;;;19.90;42.40;;;;;;5073457;28;20079;-66
2022/12/31 05:14:27;;;;;;;1.80;1.70;;;19.90;42.40;;;;;;5073939;28;20051;-66
2022/12/31 05:16:54;;;;;;;1.70;1.50;;;19.90;42.40;;;;;;5072856;28;20560;-67
2022/12/31 05:19:22;;;;;;;2.22;2.00;;;19.80;42.40;;;;;;5073212;28;20084;-66
2022/12/31 05:22:27;;;;;;;1.88;1.70;;;19.90;42.40;;;;;;5073300;28;20045;-67
2022/12/31 05:24:36;;;;;;;1.85;1.65;;;19.90;42.40;;;;;;5073123;28;20055;-66
2022/12/31 05:27:03;;;;;;;2.38;1.90;;;19.90;42.40;;;;;;5073536;28;20044;-67
2022/12/31 05:29:30;;;;;;;1.80;1.70;;;19.90;42.40;;;;;;5073560;28;20131;-67
2022/12/31 05:31:57;;;;;;;2.05;1.55;;;19.90;42.40;;;;;;5072928;28;20105;-67
2022/12/31 05:34:24;;;;;;;1.70;1.60;;;19.90;42.40;;;;;;5072753;28;20135;-67
2022/12/31 05:36:51;;;;;;;2.58;1.80;;;19.90;42.40;;;;;;5073302;28;20049;-68
2022/12/31 05:39:18;;;;;;;2.30;1.90;;;19.90;42.30;;;;;;5073194;28;20408;-67
2022/12/31 05:41:46;;;;;;;2.55;2.05;;;19.90;42.30;;;;;;5073449;28;20072;-67
2022/12/31 05:44:13;;;;;;;2.05;1.85;;;19.90;42.20;;;;;;5073648;28;20467;-67
2022/12/31 05:46:40;;;;;;;2.22;1.77;;;19.90;42.30;;;;;;5055236;28;20514;-67
2022/12/31 05:49:07;;;;;;;2.50;2.05;;;19.90;42.30;;;;;;5073242;28;20050;-67
2022/12/31 05:51:34;;;;;;;2.13;2.00;;;19.90;42.30;;;;;;5072324;28;20110;-67
2022/12/31 05:54:01;;;;;;;2.28;2.00;;;19.90;42.30;;;;;;5072579;28;20047;-67
2022/12/31 05:56:29;;;;;;;2.72;2.13;;;20.00;42.40;;;;;;5073092;28;20049;-67
2022/12/31 05:58:56;;;;;;;2.28;1.77;;;19.90;42.30;;;;;;5072529;28;20055;-67
2022/12/31 06:01:23;;;;;;;1.92;1.83;;;19.90;42.20;;;;;;5072669;28;20476;-67
2022/12/31 06:03:50;;;;;;;2.55;1.95;;;19.90;42.20;;;;;;5072317;28;20075;-67
2022/12/31 06:06:17;;;;;;;2.58;2.08;;;19.90;42.20;;;;;;5072487;28;20041;-67
2022/12/31 06:08:49;;;;;;;2.28;2.08;;;20.00;42.20;;;;;;5073322;28;20056;-67
2022/12/31 06:11:16;;;;;;;2.70;2.10;;;20.00;42.10;;;;;;5072579;28;20397;-67
2022/12/31 06:13:43;;;;;;;2.63;1.95;;;20.00;42.10;;;;;;5073373;28;20559;-67
2022/12/31 06:16:10;;;;;;;3.33;1.92;;;20.00;42.10;;;;;;5072851;28;20492;-67
2022/12/31 06:18:37;;;;;;;2.00;1.85;;;20.10;42.10;;;;;;5072694;28;20389;-67
2022/12/31 06:21:06;;;;;;;2.10;1.90;;;20.10;42.00;;;;;;5073071;28;20073;-67
2022/12/31 06:23:33;;;;;;;2.55;1.88;;;20.10;42.00;;;;;;5072504;28;20102;-67
2022/12/31 06:26:02;;;;;;;2.65;2.03;;;20.10;42.00;;;;;;5071846;28;20131;-67
2022/12/31 06:28:29;;;;;;;3.22;2.20;;;20.10;41.90;;;;;;5072526;28;20475;-67
2022/12/31 06:31:01;;;;;;;1.90;1.80;;;20.10;41.90;;;;;;5072982;28;20048;-69
2022/12/31 06:33:28;;;;;;;2.15;1.95;;;20.20;41.90;;;;;;5072286;28;20044;-67
2022/12/31 06:35:57;;;;;;;2.65;1.88;;;20.10;41.80;;;;;;5072375;28;20049;-67
2022/12/31 06:38:25;;;;;;;2.38;1.85;;;20.20;41.80;;;;;;5072786;28;20052;-67
2022/12/31 06:40:53;;;;;;;3.42;2.17;;;20.20;41.80;;;;;;5072379;28;20080;-67
2022/12/31 06:43:20;;;;;;;2.10;1.90;;;20.20;41.80;;;;;;5073001;28;20555;-67
2022/12/31 06:45:48;;;;;;;2.13;1.92;;;20.20;41.70;;;;;;5076717;28;20044;-67
2022/12/31 06:48:15;;;;;;;2.08;1.92;;;20.20;41.70;;;;;;5076556;28;20500;-67
2022/12/31 06:50:42;;;;;;;2.42;1.83;;;20.20;41.60;;;;;;5076461;28;20062;-67
2022/12/31 06:53:09;;;;;;;2.25;2.05;;;20.30;41.60;;;;;;5058921;28;20500;-67
2022/12/31 06:55:37;;;;;;;2.65;2.45;;;20.30;41.60;;;;;;5058317;28;20419;-67
2022/12/31 06:58:04;;;;;;;2.90;1.92;;;20.30;41.50;;;;;;5076579;28;20044;-68
2022/12/31 07:00:32;;;;;;;2.72;2.22;;;20.30;41.50;;;;;;5076783;28;20131;-67
2022/12/31 07:03:21;;;;;;;2.92;2.10;;;20.30;41.40;;;;;;5075768;28;20095;-67
2022/12/31 07:06:08;;;;;;;3.53;2.33;;;20.30;41.40;;;;;;5075766;28;20057;-67
2022/12/31 07:08:59;;;;;;;3.40;2.38;;;20.40;41.40;;;;;;5076281;28;20045;-67
2022/12/31 07:11:34;;;;;;;2.50;2.10;;;20.40;41.30;;;;;;5076078;28;20056;-67
2022/12/31 07:14:29;;;;;;;2.47;2.28;;;20.40;41.30;;;;;;5075599;28;20080;-67
2022/12/31 07:17:13;;;;;;;3.50;2.08;;;20.40;41.20;;;;;;5075671;28;20055;-67
2022/12/31 07:20:03;;;;;;;2.05;1.88;;;20.50;41.20;;;;;;5075731;28;20048;-67
2022/12/31 07:22:31;;;;;;;3.55;2.40;;;20.50;41.10;;;;;;5075915;28;20051;-67
2022/12/31 07:24:58;;;;;;;2.92;2.20;;;20.50;41.10;;;;;;5075322;28;20127;-67
2022/12/31 07:27:52;;;;;;;3.08;2.28;;;20.50;41.10;;;;;;5057745;28;20131;-67
2022/12/31 07:30:24;;;;;;;2.92;2.03;;;20.50;41.00;;;;;;5076159;28;20045;-67
2022/12/31 07:33:09;;;;;;;6.32;2.67;;;20.60;41.00;;;;;;5075214;28;20498;-67
2022/12/31 07:36:10;;;;;;;3.05;2.17;;;20.60;40.90;;;;;;5075826;28;20052;-67
2022/12/31 07:38:55;;;;;;;3.00;2.33;;;20.60;40.90;;;;;;5075039;28;20415;-67
2022/12/31 07:41:43;;;;;;;2.40;2.20;;;20.60;40.90;;;;;;5075765;28;20535;-68
2022/12/31 07:44:36;;;;;;;2.38;2.17;;;20.60;40.80;;;;;;5075123;28;20049;-68
2022/12/31 07:47:13;;;;;;;2.55;2.35;;;20.60;40.80;;;;;;5075553;28;20045;-67
2022/12/31 07:49:43;;;;;;;2.38;2.00;;;20.70;40.80;;;;;;5074658;28;20082;-67
2022/12/31 07:52:10;;;;;;;2.80;2.10;;;20.70;40.70;;;;;;5075004;28;20045;-68
2022/12/31 07:54:37;;;;;;;3.20;2.30;;;20.80;40.70;;;;;;5075491;28;20048;-67
2022/12/31 07:57:04;;;;;;;2.65;2.13;;;20.80;40.70;;;;;;5057150;28;20083;-67
2022/12/31 08:00:03;;;;;;;2.50;2.08;;;20.80;40.70;;;;;;5075540;28;20071;-67
2022/12/31 08:03:10;;;;;;;5.03;2.38;;;20.80;40.70;;;;;;5062420;28;20048;-67
2022/12/31 08:06:14;;;;;;;3.53;2.63;;;20.90;40.70;;;;;;5060426;28;20101;-67
2022/12/31 08:09:07;;;;;;;2.60;2.33;;;20.90;40.60;;;;;;5075164;28;20048;-67
2022/12/31 08:11:47;;;;;;;4.10;2.67;;;20.90;40.60;;;;;;5074584;28;20060;-67
2022/12/31 08:14:15;;;;;;;2.65;2.28;;;21.00;40.60;;;;;;5075156;28;20124;-68
2022/12/31 08:16:42;;;;;;;2.97;2.63;;;21.00;40.50;;;;;;5075141;28;20136;-67
2022/12/31 08:19:27;;;;;;;3.47;2.47;;;21.00;40.50;;;;;;5074855;28;20136;-67
2022/12/31 08:22:20;;;;;;;2.70;2.50;;;21.00;40.40;;;;;;5075359;28;20045;-67
2022/12/31 08:25:02;;;;;;;3.25;2.55;;;21.10;40.50;;;;;;5074785;28;20114;-67
2022/12/31 08:28:01;;;;;;;2.67;2.40;;;21.10;40.50;;;;;;5074887;28;20048;-67
2022/12/31 08:30:46;;;;;;;4.00;2.75;;;21.10;40.50;;;;;;5061717;28;20451;-67
2022/12/31 08:33:32;;;;;;;2.97;2.40;;;21.10;40.40;;;;;;5074699;28;20049;-67
2022/12/31 08:36:17;;;;;;;2.53;2.20;;;21.10;40.50;;;;;;5075092;28;20045;-67
2022/12/31 08:39:06;;;;;;;3.20;2.78;;;21.20;40.50;;;;;;5074397;28;20054;-67
2022/12/31 08:41:53;;;;;;;4.00;2.60;;;21.20;40.50;;;;;;5074633;28;20048;-67
2022/12/31 08:44:41;;;;;;;3.20;2.80;;;21.20;40.50;;;;;;5074760;28;20052;-67
2022/12/31 08:47:47;;;;;;;3.03;2.72;;;21.20;40.50;;;;;;5056821;28;20053;-67
2022/12/31 08:50:17;;;;;;;3.47;2.60;;;21.20;40.50;;;;;;5059958;28;20056;-67
2022/12/31 08:52:44;;;;;;;4.55;2.45;;;21.20;40.50;;;;;;5074717;28;20075;-67
2022/12/31 08:55:17;;;;;;;5.90;3.10;;;21.30;40.50;;;;;;5074529;28;20058;-67
2022/12/31 08:58:17;;;;;;;3.33;2.38;;;21.30;40.50;;;;;;5074162;28;20041;-67
2022/12/31 09:00:46;;;;;;;3.00;2.63;;;21.30;40.50;;;;;;5074547;28;20048;-67
2022/12/31 09:03:53;;;;;;;4.07;2.28;;;21.30;40.40;;;;;;5074421;28;20076;-67
2022/12/31 09:06:30;;;;;;;2.92;2.22;;;21.40;40.40;;;;;;5062621;28;20381;-67
2022/12/31 09:09:26;;;;;;;3.03;2.50;;;21.40;40.40;;;;;;5039253;28;20531;-67
2022/12/31 09:12:04;;;;;;;4.63;1.95;;;21.40;40.30;;;;;;5055900;28;20051;-67
2022/12/31 09:14:49;;;;;;;5.13;2.45;;;21.40;40.30;;;;;;5073898;28;20048;-67
2022/12/31 09:17:42;;;;;;;3.90;3.13;;;21.50;40.30;;;;;;5073964;28;20053;-67
2022/12/31 09:20:22;;;;;;;3.55;2.85;;;21.50;40.30;;;;;;5073881;28;20049;-67
2022/12/31 09:22:50;;;;;;;2.40;2.13;;;21.50;40.20;;;;;;5074200;28;20076;-67
2022/12/31 09:25:20;;;;;;;3.25;2.67;;;21.60;40.20;;;;;;5073715;28;20102;-67
2022/12/31 09:28:27;;;;;;;3.15;2.58;;;21.60;40.10;;;;;;5073713;28;20052;-67
2022/12/31 09:31:03;;;;;;;3.38;2.78;;;21.60;40.10;;;;;;5073605;28;20052;-67
2022/12/31 09:33:57;;;;;;;2.90;2.25;;;21.60;40.00;;;;;;5055854;28;20123;-68
2022/12/31 09:36:30;;;;;;;4.15;2.83;;;21.70;40.00;;;;;;5056153;28;20084;-67
2022/12/31 09:39:22;;;;;;;2.85;2.13;;;21.70;40.00;;;;;;5073393;28;20063;-67
2022/12/31 09:42:08;;;;;;;3.22;2.47;;;21.70;39.90;;;;;;5073792;28;20047;-67
2022/12/31 09:45:05;;;;;;;2.88;2.42;;;21.80;40.00;;;;;;5056676;28;20059;-67
2022/12/31 09:48:02;;;;;;;3.13;2.03;;;21.80;39.90;;;;;;5040471;28;20045;-68
2022/12/31 09:50:55;;;;;;;4.43;2.72;;;21.80;39.90;;;;;;5040145;28;20499;-68
2022/12/31 09:53:40;;;;;;;3.63;2.20;;;21.80;39.90;;;;;;5053666;28;20455;-67
2022/12/31 09:56:28;;;;;;;3.45;2.67;;;21.90;39.90;;;;;;5053389;28;20049;-67
2022/12/31 09:59:19;;;;;;;4.03;2.45;;;21.90;39.80;;;;;;5053020;28;20053;-68
2022/12/31 10:01:55;;;;;;;;;;;21.90;39.70;;;;;;5053592;28;20045;-67
2022/12/31 10:04:53;;;;;;;2.88;2.47;;;21.90;39.70;;;;;;5053085;28;19968;-67
2022/12/31 10:07:50;;;;;;;3.75;2.78;;;22.00;39.70;;;;;;5053423;28;20055;-67
2022/12/31 10:10:36;;;;;;;2.58;2.35;;;22.00;39.60;;;;;;5053207;28;20053;-67
2022/12/31 10:13:37;;;;;;;3.22;2.20;;;22.10;39.60;;;;;;5034935;28;20094;-67
2022/12/31 10:16:27;;;;;;;4.20;2.13;;;22.10;39.60;;;;;;5038598;28;20071;-67
2022/12/31 10:19:26;;;;;;;2.75;2.20;;;22.10;39.50;;;;;;5052867;28;20049;-68
2022/12/31 10:22:15;;;;;;;2.40;1.88;;;22.10;39.50;;;;;;5040396;28;20056;-67
2022/12/31 10:25:10;;;;;;;3.72;2.05;;;22.10;39.50;;;;;;5053307;28;20080;-68
2022/12/31 10:27:53;;;;;;;2.13;1.92;;;22.10;39.50;;;;;;5039817;28;20479;-67
2022/12/31 10:30:22;;;;;;;2.28;1.90;;;22.10;39.40;;;;;;5053353;28;20057;-67
2022/12/31 10:33:10;;;;;;;3.45;2.58;;;22.20;39.50;;;;;;5052904;28;20125;-67
2022/12/31 10:36:08;;;;;;;3.30;2.78;;;22.20;39.50;;;;;;5052861;28;20049;-68
2022/12/31 10:39:01;;;;;;;3.38;2.00;;;22.20;39.40;;;;;;5052638;28;20056;-67
2022/12/31 10:42:16;;;;;;;2.75;2.00;;;22.20;39.40;;;;;;5052911;28;20055;-68
2022/12/31 10:45:14;;;;;;;4.07;2.30;;;22.20;39.40;;;;;;5052717;28;20045;-68
2022/12/31 10:48:21;;;;;;;3.05;2.63;;;22.30;39.40;;;;;;5053028;28;20060;-68
2022/12/31 10:51:19;;;;;;;1.80;1.70;;;22.30;39.30;;;;;;5052541;28;20049;-68
2022/12/31 10:54:26;;;;;;;2.47;2.13;;;22.30;39.30;;;;;;5052652;28;20053;-68
2022/12/31 10:57:30;;;;;;;2.15;1.95;;;22.30;39.30;;;;;;5052493;28;20048;-68
2022/12/31 11:00:11;;;;;;;2.28;2.00;;;22.30;39.30;;;;;;5052535;28;20132;-68
2022/12/31 11:03:12;;;;;;;2.47;2.03;;;22.30;39.30;;;;;;5051879;28;20539;-67
2022/12/31 11:06:19;;;;;;;2.22;2.03;;;22.30;39.50;;;;;;5052633;28;20045;-67
2022/12/31 11:09:17;;;;;;;1.90;1.70;;;22.30;39.20;;;;;;5052391;28;20048;-68
2022/12/31 11:12:23;;;;;;;2.78;2.22;;;22.40;39.30;;;;;;5052420;28;20485;-68
2022/12/31 11:15:17;;;;;;;2.78;1.63;;;22.40;39.20;;;;;;5037689;28;20056;-67
2022/12/31 11:18:12;;;;;;;2.75;2.15;;;22.40;39.20;;;;;;5051965;28;20080;-68
2022/12/31 11:21:18;;;;;;;3.15;1.52;;;22.40;39.20;;;;;;5052420;28;20055;-67
2022/12/31 11:24:18;;;;;;;1.67;1.55;;;22.50;39.30;;;;;;5041074;28;20496;-67
2022/12/31 11:27:13;;;;;;;2.88;1.90;;;22.50;39.20;;;;;;5051894;28;20077;-68
2022/12/31 11:30:19;;;;;;;2.55;2.17;;;22.50;39.20;;;;;;5052328;28;20060;-67
2022/12/31 11:33:08;;;;;;;2.38;2.03;;;22.50;39.20;;;;;;5044302;28;20045;-68
2022/12/31 11:36:02;;;;;;;2.35;1.98;;;22.50;39.20;;;;;;5055774;28;20059;-67
2022/12/31 11:38:34;;;;;;;3.42;2.50;;;22.50;39.30;;;;;;5056021;28;20051;-67
2022/12/31 11:41:16;;;;;;;3.22;2.30;;;22.50;39.30;;;;;;5056063;28;20127;-68
2022/12/31 11:43:54;;;;;;;1.95;1.65;;;22.50;39.30;;;;;;5056069;28;20082;-67
2022/12/31 11:46:47;;;;;;;1.83;1.73;;;22.50;39.30;;;;;;5055984;28;20064;-67
2022/12/31 11:49:29;;;;;;;1.70;1.48;;;22.50;39.20;;;;;;5055771;28;20127;-68
2022/12/31 11:52:23;;;;;;;2.78;2.03;;;22.50;39.20;;;;;;5055025;28;20128;-67
2022/12/31 11:55:18;;;;;;;2.80;2.10;;;22.50;39.20;;;;;;5054900;28;20059;-68
2022/12/31 11:57:50;;;;;;;2.30;1.88;;;22.50;39.20;;;;;;5055412;28;20493;-67
2022/12/31 12:00:23;;;;;;;2.33;1.70;;;22.50;39.20;;;;;;5055359;28;20059;-67
2022/12/31 12:03:03;;;;;;;3.10;1.90;;;22.60;39.30;;;;;;5055305;28;20132;-68
2022/12/31 12:05:32;;;;;;;3.60;1.85;;;22.50;39.30;;;;;;5037163;28;20409;-67
2022/12/31 12:08:00;;;;;;;2.95;1.98;;;22.50;39.30;;;;;;5055479;28;20045;-67
2022/12/31 12:10:43;;;;;;;3.15;1.80;;;22.50;39.30;;;;;;5055388;28;20052;-67
2022/12/31 12:13:23;;;;;;;2.25;1.58;;;22.50;39.30;;;;;;5054072;28;20052;-68
2022/12/31 12:15:54;;;;;;;1.77;1.60;;;22.50;39.30;;;;;;5055162;28;20412;-67
2022/12/31 12:18:41;;;;;;;2.08;1.90;;;22.60;39.40;;;;;;5037255;28;20049;-67
2022/12/31 12:21:15;;;;;;;2.92;2.03;;;22.50;39.30;;;;;;5054491;28;20140;-67
2022/12/31 12:23:57;;;;;;;1.48;1.38;;;22.60;39.40;;;;;;5055285;28;20041;-67
2022/12/31 12:26:28;;;;;;;1.73;1.63;;;22.60;39.30;;;;;;5054928;28;20056;-67
2022/12/31 12:29:07;;;;;;;1.88;1.73;;;22.60;39.30;;;;;;5055028;28;20041;-67
2022/12/31 12:31:34;;;;;;;1.55;1.45;;;22.60;39.30;;;;;;5054166;28;20570;-67
2022/12/31 12:34:03;;;;;;;1.80;1.70;;;22.60;39.30;;;;;;5054913;28;20044;-67
2022/12/31 12:36:31;;;;;;;2.13;1.63;;;22.60;39.30;;;;;;5054299;28;20128;-67
2022/12/31 12:39:05;;;;;;;2.00;1.80;;;22.60;39.30;;;;;;5054532;28;20044;-67
2022/12/31 12:41:32;;;;;;;2.55;2.15;;;22.60;39.30;;;;;;5054312;28;20059;-67
2022/12/31 12:44:13;;;;;;;1.88;1.60;;;22.60;39.30;;;;;;5054767;28;20123;-67
2022/12/31 12:46:45;;;;;;;;;;;22.60;39.30;;;;;;5055333;28;20059;-67
2022/12/31 12:49:26;;;;;;;1.83;1.52;;;22.60;39.30;;;;;;5054170;28;20283;-67
2022/12/31 12:52:33;;;;;;;1.60;1.50;;;22.60;39.40;;;;;;5036704;28;20480;-67
2022/12/31 12:55:31;;;;;;;1.55;1.42;;;22.60;39.40;;;;;;5053704;28;20147;-67
2022/12/31 12:58:25;;;;;;;2.67;1.80;;;22.60;39.40;;;;;;5053628;28;20056;-68
2022/12/31 13:01:22;;;;;;;2.53;1.98;;;22.60;39.40;;;;;;5038171;28;20128;-67
2022/12/31 13:04:29;;;;;;;1.75;1.65;;;22.60;39.40;;;;;;5054455;28;20111;-67
2022/12/31 13:07:30;;;;;;;2.60;1.70;;;22.60;39.40;;;;;;5040437;28;20129;-68
2022/12/31 13:10:14;;;;;;;2.03;1.60;;;22.60;39.40;;;;;;5041099;28;20049;-67
2022/12/31 13:13:05;;;;;;;1.67;1.58;;;22.60;39.40;;;;;;5054355;28;20150;-67
2022/12/31 13:16:03;;;;;;;3.05;1.90;;;22.60;39.40;;;;;;5054368;28;20041;-67
2022/12/31 13:19:09;;;;;;;1.98;1.83;;;22.60;39.40;;;;;;5053946;28;20052;-67
2022/12/31 13:21:57;;;;;;;1.95;1.63;;;22.60;39.40;;;;;;5053880;28;20474;-67
2022/12/31 13:24:59;;;;;;;1.98;1.70;;;22.60;39.40;;;;;;5053780;28;20127;-67
2022/12/31 13:27:44;;;;;;;3.38;1.70;;;22.60;39.40;;;;;;5038970;28;20057;-67
2022/12/31 13:30:21;;;;;;;2.20;1.50;;;22.60;39.50;;;;;;5053902;28;20116;-67
2022/12/31 13:33:02;;;;;;;2.20;2.00;;;22.60;39.40;;;;;;5054047;28;20045;-67
2022/12/31 13:35:48;;;;;;;2.08;1.40;;;22.60;39.50;;;;;;5053525;28;20127;-67
2022/12/31 13:38:22;;;;;;;2.95;1.80;;;22.60;39.50;;;;;;5053844;28;20053;-67
2022/12/31 13:41:02;;;;;;;2.28;1.88;;;22.60;39.50;;;;;;5053420;28;20055;-67
2022/12/31 13:43:39;;;;;;;2.15;1.92;;;22.60;39.50;;;;;;5053478;28;20132;-67
2022/12/31 13:46:21;;;;;;;1.42;1.33;;;22.60;39.50;;;;;;5053811;28;20468;-67
2022/12/31 13:48:56;;;;;;;2.03;1.70;;;22.60;39.50;;;;;;5053533;28;20127;-67